sensor_id;sensor_type;location;lat;lon;timestamp;temperature;humidity
37289;DHT22;23174;49.462;11.000;2024-02-23T00:00:48;13.30;99.90
37289;DHT22;23174;49.462;11.000;2024-02-23T00:02:49;13.30;99.90
37289;DHT22;23174;49.462;11.000;2024-02-23T00:04:49;13.20;99.90
37289;DHT22;23174;49.462;11.000;2024-02-23T00:06:50;13.20;99.90
37289;DHT22;23174;49.462;11.000;2024-02-23T00:08:51;13.20;99.90
37289;DHT22;23174;49.462;11.000;2024-02-23T00:10:54;13.20;99.90
37289;DHT22;23174;49.462;11.000;2024-02-23T00:12:54;13.30;99.90
37289;DHT22;23174;49.462;11.000;2024-02-23T00:14:54;13.20;99.90
37289;DHT22;23174;49.462;11.000;2024-02-23T00:16:55;13.10;99.90
37289;DHT22;23174;49.462;11.000;2024-02-23T00:18:56;13.10;99.90
37289;DHT22;23174;49.462;11.000;2024-02-23T00:20:57;13.10;99.90
37289;DHT22;23174;49.462;11.000;2024-02-23T00:22:57;13.10;99.90
37289;DHT22;23174;49.462;11.000;2024-02-23T00:24:58;13.10;99.90
37289;DHT22;23174;49.462;11.000;2024-02-23T00:26:58;13.10;99.90
37289;DHT22;23174;49.462;11.000;2024-02-23T00:28:59;13.10;99.90
37289;DHT22;23174;49.462;11.000;2024-02-23T00:30:59;13.10;99.90
37289;DHT22;23174;49.462;11.000;2024-02-23T00:33:00;13.00;99.90
37289;DHT22;23174;49.462;11.000;2024-02-23T00:35:00;13.00;99.90
37289;DHT22;23174;49.462;11.000;2024-02-23T00:37:01;13.00;99.90
37289;DHT22;23174;49.462;11.000;2024-02-23T00:39:02;13.00;99.90
37289;DHT22;23174;49.462;11.000;2024-02-23T00:41:03;12.90;99.90
37289;DHT22;23174;49.462;11.000;2024-02-23T00:43:04;13.00;99.90
37289;DHT22;23174;49.462;11.000;2024-02-23T00:45:05;12.90;99.90
37289;DHT22;23174;49.462;11.000;2024-02-23T00:47:05;12.90;99.90
37289;DHT22;23174;49.462;11.000;2024-02-23T00:49:06;12.80;99.90
37289;DHT22;23174;49.462;11.000;2024-02-23T00:51:07;12.80;99.90
37289;DHT22;23174;49.462;11.000;2024-02-23T00:53:07;12.80;99.90
37289;DHT22;23174;49.462;11.000;2024-02-23T00:55:08;12.80;99.90
37289;DHT22;23174;49.462;11.000;2024-02-23T00:57:09;12.70;99.90
37289;DHT22;23174;49.462;11.000;2024-02-23T00:59:09;12.60;99.90
37289;DHT22;23174;49.462;11.000;2024-02-23T01:01:09;12.60;99.90
37289;DHT22;23174;49.462;11.000;2024-02-23T01:03:10;12.60;99.90
37289;DHT22;23174;49.462;11.000;2024-02-23T01:05:10;12.50;99.90
37289;DHT22;23174;49.462;11.000;2024-02-23T01:07:11;12.50;99.90
37289;DHT22;23174;49.462;11.000;2024-02-23T01:09:11;12.50;99.90
37289;DHT22;23174;49.462;11.000;2024-02-23T01:11:12;12.40;99.90
37289;DHT22;23174;49.462;11.000;2024-02-23T01:13:12;12.40;99.90
37289;DHT22;23174;49.462;11.000;2024-02-23T01:15:14;12.40;99.90
37289;DHT22;23174;49.462;11.000;2024-02-23T01:17:14;12.30;99.90
37289;DHT22;23174;49.462;11.000;2024-02-23T01:19:18;12.30;99.90
37289;DHT22;23174;49.462;11.000;2024-02-23T01:21:19;12.30;99.90
37289;DHT22;23174;49.462;11.000;2024-02-23T01:23:19;12.20;99.90
37289;DHT22;23174;49.462;11.000;2024-02-23T01:25:20;12.20;99.90
37289;DHT22;23174;49.462;11.000;2024-02-23T01:27:20;12.20;99.90
37289;DHT22;23174;49.462;11.000;2024-02-23T01:29:22;12.10;99.90
37289;DHT22;23174;49.462;11.000;2024-02-23T01:31:23;12.10;99.90
37289;DHT22;23174;49.462;11.000;2024-02-23T01:33:23;12.20;99.90
37289;DHT22;23174;49.462;11.000;2024-02-23T01:35:24;12.10;99.90
37289;DHT22;23174;49.462;11.000;2024-02-23T01:37:24;12.10;99.90
37289;DHT22;23174;49.462;11.000;2024-02-23T01:39:25;12.10;99.90
37289;DHT22;23174;49.462;11.000;2024-02-23T01:41:25;12.10;99.90
37289;DHT22;23174;49.462;11.000;2024-02-23T01:43:26;12.10;99.90
37289;DHT22;23174;49.462;11.000;2024-02-23T01:45:26;12.10;99.90
37289;DHT22;23174;49.462;11.000;2024-02-23T01:47:28;12.10;99.90
37289;DHT22;23174;49.462;11.000;2024-02-23T01:49:29;12.00;99.90
37289;DHT22;23174;49.462;11.000;2024-02-23T01:51:33;11.90;99.90
37289;DHT22;23174;49.462;11.000;2024-02-23T01:53:34;11.90;99.90
37289;DHT22;23174;49.462;11.000;2024-02-23T01:55:35;11.90;99.90
37289;DHT22;23174;49.462;11.000;2024-02-23T01:57:35;11.90;99.90
37289;DHT22;23174;49.462;11.000;2024-02-23T01:59:37;11.80;99.90
37289;DHT22;23174;49.462;11.000;2024-02-23T02:01:38;11.80;99.90
37289;DHT22;23174;49.462;11.000;2024-02-23T02:03:39;11.80;99.90
37289;DHT22;23174;49.462;11.000;2024-02-23T02:05:40;11.80;99.90
37289;DHT22;23174;49.462;11.000;2024-02-23T02:07:40;11.80;99.90
37289;DHT22;23174;49.462;11.000;2024-02-23T02:09:42;11.80;99.90
37289;DHT22;23174;49.462;11.000;2024-02-23T02:11:49;11.70;99.90
37289;DHT22;23174;49.462;11.000;2024-02-23T02:13:49;11.70;99.90
37289;DHT22;23174;49.462;11.000;2024-02-23T02:15:50;11.70;99.90
37289;DHT22;23174;49.462;11.000;2024-02-23T02:17:50;11.70;99.90
37289;DHT22;23174;49.462;11.000;2024-02-23T02:19:51;11.70;99.90
37289;DHT22;23174;49.462;11.000;2024-02-23T02:21:52;11.70;99.90
37289;DHT22;23174;49.462;11.000;2024-02-23T02:23:53;11.60;99.90
37289;DHT22;23174;49.462;11.000;2024-02-23T02:25:54;11.60;99.90
37289;DHT22;23174;49.462;11.000;2024-02-23T02:27:55;11.60;99.90
37289;DHT22;23174;49.462;11.000;2024-02-23T02:29:55;11.60;99.90
37289;DHT22;23174;49.462;11.000;2024-02-23T02:31:56;11.60;99.90
37289;DHT22;23174;49.462;11.000;2024-02-23T02:33:56;11.60;99.90
37289;DHT22;23174;49.462;11.000;2024-02-23T02:35:56;11.60;99.90
37289;DHT22;23174;49.462;11.000;2024-02-23T02:37:57;11.60;99.90
37289;DHT22;23174;49.462;11.000;2024-02-23T02:39:57;11.60;99.90
37289;DHT22;23174;49.462;11.000;2024-02-23T02:41:58;11.60;99.90
37289;DHT22;23174;49.462;11.000;2024-02-23T02:43:58;11.60;99.90
37289;DHT22;23174;49.462;11.000;2024-02-23T02:45:59;11.50;99.90
37289;DHT22;23174;49.462;11.000;2024-02-23T02:48:00;11.50;99.90
37289;DHT22;23174;49.462;11.000;2024-02-23T02:50:02;11.50;99.90
37289;DHT22;23174;49.462;11.000;2024-02-23T02:52:02;11.50;99.90
37289;DHT22;23174;49.462;11.000;2024-02-23T02:54:03;11.50;99.90
37289;DHT22;23174;49.462;11.000;2024-02-23T02:56:06;11.40;99.90
37289;DHT22;23174;49.462;11.000;2024-02-23T02:58:07;11.50;99.90
37289;DHT22;23174;49.462;11.000;2024-02-23T03:00:10;11.50;99.90
37289;DHT22;23174;49.462;11.000;2024-02-23T03:02:11;11.40;99.90
37289;DHT22;23174;49.462;11.000;2024-02-23T03:04:12;11.50;99.90
37289;DHT22;23174;49.462;11.000;2024-02-23T03:06:12;11.50;99.90
37289;DHT22;23174;49.462;11.000;2024-02-23T03:08:13;11.50;99.90
37289;DHT22;23174;49.462;11.000;2024-02-23T03:10:13;11.60;99.90
37289;DHT22;23174;49.462;11.000;2024-02-23T03:12:14;11.60;99.90
37289;DHT22;23174;49.462;11.000;2024-02-23T03:14:14;11.60;99.90
37289;DHT22;23174;49.462;11.000;2024-02-23T03:16:18;11.50;99.90
37289;DHT22;23174;49.462;11.000;2024-02-23T03:18:19;11.50;99.90
37289;DHT22;23174;49.462;11.000;2024-02-23T03:20:19;11.50;99.90
37289;DHT22;23174;49.462;11.000;2024-02-23T03:22:20;11.40;99.90
37289;DHT22;23174;49.462;11.000;2024-02-23T03:24:20;11.40;99.90
37289;DHT22;23174;49.462;11.000;2024-02-23T03:26:21;11.40;99.90
37289;DHT22;23174;49.462;11.000;2024-02-23T03:28:21;11.30;99.90
37289;DHT22;23174;49.462;11.000;2024-02-23T03:30:22;11.30;99.90
37289;DHT22;23174;49.462;11.000;2024-02-23T03:32:22;11.40;99.90
37289;DHT22;23174;49.462;11.000;2024-02-23T03:34:23;11.30;99.90
37289;DHT22;23174;49.462;11.000;2024-02-23T03:36:23;11.30;99.90
37289;DHT22;23174;49.462;11.000;2024-02-23T03:38:24;11.30;99.90
37289;DHT22;23174;49.462;11.000;2024-02-23T03:40:24;11.30;99.90
37289;DHT22;23174;49.462;11.000;2024-02-23T03:42:25;11.30;99.90
37289;DHT22;23174;49.462;11.000;2024-02-23T03:44:26;11.30;99.90
37289;DHT22;23174;49.462;11.000;2024-02-23T03:46:26;11.30;99.90
37289;DHT22;23174;49.462;11.000;2024-02-23T03:48:27;11.20;99.90
37289;DHT22;23174;49.462;11.000;2024-02-23T03:50:27;11.30;99.90
37289;DHT22;23174;49.462;11.000;2024-02-23T03:52:27;11.30;99.90
37289;DHT22;23174;49.462;11.000;2024-02-23T03:54:28;11.20;99.90
37289;DHT22;23174;49.462;11.000;2024-02-23T03:56:28;11.20;99.90
37289;DHT22;23174;49.462;11.000;2024-02-23T03:58:29;11.10;99.90
37289;DHT22;23174;49.462;11.000;2024-02-23T04:00:29;11.10;99.90
37289;DHT22;23174;49.462;11.000;2024-02-23T04:02:30;11.20;99.90
37289;DHT22;23174;49.462;11.000;2024-02-23T04:04:30;11.30;99.90
37289;DHT22;23174;49.462;11.000;2024-02-23T04:06:31;11.20;99.90
37289;DHT22;23174;49.462;11.000;2024-02-23T04:08:32;11.10;99.90
37289;DHT22;23174;49.462;11.000;2024-02-23T04:10:32;11.10;99.90
37289;DHT22;23174;49.462;11.000;2024-02-23T04:12:33;11.10;99.90
37289;DHT22;23174;49.462;11.000;2024-02-23T04:14:34;11.10;99.90
37289;DHT22;23174;49.462;11.000;2024-02-23T04:16:36;11.10;99.90
37289;DHT22;23174;49.462;11.000;2024-02-23T04:18:37;11.20;99.90
37289;DHT22;23174;49.462;11.000;2024-02-23T04:20:37;11.10;99.90
37289;DHT22;23174;49.462;11.000;2024-02-23T04:22:38;11.20;99.90
37289;DHT22;23174;49.462;11.000;2024-02-23T04:24:39;11.20;99.90
37289;DHT22;23174;49.462;11.000;2024-02-23T04:26:40;11.10;99.90
37289;DHT22;23174;49.462;11.000;2024-02-23T04:28:41;11.20;99.90
37289;DHT22;23174;49.462;11.000;2024-02-23T04:30:41;11.10;99.90
37289;DHT22;23174;49.462;11.000;2024-02-23T04:32:42;11.10;99.90
37289;DHT22;23174;49.462;11.000;2024-02-23T04:34:42;11.10;99.90
37289;DHT22;23174;49.462;11.000;2024-02-23T04:36:43;11.00;99.90
37289;DHT22;23174;49.462;11.000;2024-02-23T04:38:43;11.10;99.90
37289;DHT22;23174;49.462;11.000;2024-02-23T04:40:44;11.00;99.90
37289;DHT22;23174;49.462;11.000;2024-02-23T04:42:45;11.10;99.90
37289;DHT22;23174;49.462;11.000;2024-02-23T04:44:47;11.10;99.90
37289;DHT22;23174;49.462;11.000;2024-02-23T04:46:49;11.00;99.90
37289;DHT22;23174;49.462;11.000;2024-02-23T04:48:50;11.00;99.90
37289;DHT22;23174;49.462;11.000;2024-02-23T04:50:50;11.10;99.90
37289;DHT22;23174;49.462;11.000;2024-02-23T04:52:51;11.00;99.90
37289;DHT22;23174;49.462;11.000;2024-02-23T04:54:51;10.90;99.90
37289;DHT22;23174;49.462;11.000;2024-02-23T04:56:52;11.00;99.90
37289;DHT22;23174;49.462;11.000;2024-02-23T04:58:52;11.00;99.90
37289;DHT22;23174;49.462;11.000;2024-02-23T05:00:52;10.90;99.90
37289;DHT22;23174;49.462;11.000;2024-02-23T05:02:53;10.90;99.90
37289;DHT22;23174;49.462;11.000;2024-02-23T05:04:53;10.90;99.90
37289;DHT22;23174;49.462;11.000;2024-02-23T05:06:54;10.80;99.90
37289;DHT22;23174;49.462;11.000;2024-02-23T05:08:54;10.90;99.90
37289;DHT22;23174;49.462;11.000;2024-02-23T05:10:55;10.90;99.90
37289;DHT22;23174;49.462;11.000;2024-02-23T05:12:55;10.90;99.90
37289;DHT22;23174;49.462;11.000;2024-02-23T05:14:56;11.00;99.90
37289;DHT22;23174;49.462;11.000;2024-02-23T05:16:56;11.00;99.90
37289;DHT22;23174;49.462;11.000;2024-02-23T05:18:57;10.90;99.90
37289;DHT22;23174;49.462;11.000;2024-02-23T05:20:57;10.90;99.90
37289;DHT22;23174;49.462;11.000;2024-02-23T05:22:58;10.90;99.90
37289;DHT22;23174;49.462;11.000;2024-02-23T05:24:58;10.80;99.90
37289;DHT22;23174;49.462;11.000;2024-02-23T05:26:58;10.80;99.90
37289;DHT22;23174;49.462;11.000;2024-02-23T05:29:02;10.80;99.90
37289;DHT22;23174;49.462;11.000;2024-02-23T05:31:04;10.80;99.90
37289;DHT22;23174;49.462;11.000;2024-02-23T05:33:04;10.70;99.90
37289;DHT22;23174;49.462;11.000;2024-02-23T05:35:05;10.80;99.90
37289;DHT22;23174;49.462;11.000;2024-02-23T05:37:08;10.70;99.90
37289;DHT22;23174;49.462;11.000;2024-02-23T05:39:08;10.70;99.90
37289;DHT22;23174;49.462;11.000;2024-02-23T05:41:12;10.80;99.90
37289;DHT22;23174;49.462;11.000;2024-02-23T05:43:13;10.70;99.90
37289;DHT22;23174;49.462;11.000;2024-02-23T05:45:14;10.80;99.90
37289;DHT22;23174;49.462;11.000;2024-02-23T05:47:15;10.70;99.90
37289;DHT22;23174;49.462;11.000;2024-02-23T05:49:16;10.70;99.90
37289;DHT22;23174;49.462;11.000;2024-02-23T05:51:16;10.70;99.90
37289;DHT22;23174;49.462;11.000;2024-02-23T05:53:17;10.70;99.90
37289;DHT22;23174;49.462;11.000;2024-02-23T05:55:17;10.70;99.90
37289;DHT22;23174;49.462;11.000;2024-02-23T05:57:18;10.70;99.90
37289;DHT22;23174;49.462;11.000;2024-02-23T05:59:18;10.60;99.90
37289;DHT22;23174;49.462;11.000;2024-02-23T06:01:19;10.70;99.90
37289;DHT22;23174;49.462;11.000;2024-02-23T06:03:19;10.70;99.90
37289;DHT22;23174;49.462;11.000;2024-02-23T06:05:20;10.70;99.90
37289;DHT22;23174;49.462;11.000;2024-02-23T06:07:21;10.70;99.90
37289;DHT22;23174;49.462;11.000;2024-02-23T06:09:27;10.60;99.90
37289;DHT22;23174;49.462;11.000;2024-02-23T06:11:28;10.50;99.90
37289;DHT22;23174;49.462;11.000;2024-02-23T06:13:28;10.60;99.90
37289;DHT22;23174;49.462;11.000;2024-02-23T06:15:29;10.60;99.90
37289;DHT22;23174;49.462;11.000;2024-02-23T06:17:29;10.60;99.90
37289;DHT22;23174;49.462;11.000;2024-02-23T06:19:30;10.60;99.90
37289;DHT22;23174;49.462;11.000;2024-02-23T06:21:30;10.50;99.90
37289;DHT22;23174;49.462;11.000;2024-02-23T06:23:32;10.50;99.90
37289;DHT22;23174;49.462;11.000;2024-02-23T06:25:32;10.50;99.90
37289;DHT22;23174;49.462;11.000;2024-02-23T06:27:33;10.60;99.90
37289;DHT22;23174;49.462;11.000;2024-02-23T06:29:33;10.50;99.90
37289;DHT22;23174;49.462;11.000;2024-02-23T06:31:34;10.60;99.90
37289;DHT22;23174;49.462;11.000;2024-02-23T06:33:35;10.60;99.90
37289;DHT22;23174;49.462;11.000;2024-02-23T06:35:35;10.60;99.90
37289;DHT22;23174;49.462;11.000;2024-02-23T06:37:36;10.60;99.90
37289;DHT22;23174;49.462;11.000;2024-02-23T06:39:37;10.60;99.90
37289;DHT22;23174;49.462;11.000;2024-02-23T06:41:40;10.60;99.90
37289;DHT22;23174;49.462;11.000;2024-02-23T06:43:41;10.50;99.90
37289;DHT22;23174;49.462;11.000;2024-02-23T06:45:41;10.60;99.90
37289;DHT22;23174;49.462;11.000;2024-02-23T06:47:44;10.60;99.90
37289;DHT22;23174;49.462;11.000;2024-02-23T06:49:46;10.60;99.90
37289;DHT22;23174;49.462;11.000;2024-02-23T06:51:46;10.60;99.90
37289;DHT22;23174;49.462;11.000;2024-02-23T06:53:47;10.60;99.90
37289;DHT22;23174;49.462;11.000;2024-02-23T06:55:47;10.50;99.90
37289;DHT22;23174;49.462;11.000;2024-02-23T06:57:48;10.50;99.90
37289;DHT22;23174;49.462;11.000;2024-02-23T06:59:49;10.50;99.90
37289;DHT22;23174;49.462;11.000;2024-02-23T07:01:50;10.60;99.90
37289;DHT22;23174;49.462;11.000;2024-02-23T07:03:51;10.60;99.90
37289;DHT22;23174;49.462;11.000;2024-02-23T07:05:51;10.60;99.90
37289;DHT22;23174;49.462;11.000;2024-02-23T07:07:52;10.60;99.90
37289;DHT22;23174;49.462;11.000;2024-02-23T07:09:53;10.60;99.90
37289;DHT22;23174;49.462;11.000;2024-02-23T07:11:55;10.60;99.90
37289;DHT22;23174;49.462;11.000;2024-02-23T07:13:56;10.60;99.90
37289;DHT22;23174;49.462;11.000;2024-02-23T07:15:56;10.60;99.90
37289;DHT22;23174;49.462;11.000;2024-02-23T07:17:59;10.60;99.90
37289;DHT22;23174;49.462;11.000;2024-02-23T07:19:59;10.60;99.90
37289;DHT22;23174;49.462;11.000;2024-02-23T07:22:05;10.70;99.90
37289;DHT22;23174;49.462;11.000;2024-02-23T07:24:06;10.60;99.90
37289;DHT22;23174;49.462;11.000;2024-02-23T07:26:07;10.60;99.90
37289;DHT22;23174;49.462;11.000;2024-02-23T07:28:07;10.70;99.90
37289;DHT22;23174;49.462;11.000;2024-02-23T07:30:08;10.70;99.90
37289;DHT22;23174;49.462;11.000;2024-02-23T07:32:09;10.70;99.90
37289;DHT22;23174;49.462;11.000;2024-02-23T07:34:10;10.70;99.90
37289;DHT22;23174;49.462;11.000;2024-02-23T07:36:14;10.70;99.90
37289;DHT22;23174;49.462;11.000;2024-02-23T07:38:15;10.70;99.90
37289;DHT22;23174;49.462;11.000;2024-02-23T07:40:18;10.60;99.90
37289;DHT22;23174;49.462;11.000;2024-02-23T07:42:18;10.50;99.90
37289;DHT22;23174;49.462;11.000;2024-02-23T07:44:19;10.50;99.90
37289;DHT22;23174;49.462;11.000;2024-02-23T07:46:19;10.50;99.90
37289;DHT22;23174;49.462;11.000;2024-02-23T07:48:20;10.50;99.90
37289;DHT22;23174;49.462;11.000;2024-02-23T07:50:22;10.50;99.90
37289;DHT22;23174;49.462;11.000;2024-02-23T07:52:22;10.50;99.90
37289;DHT22;23174;49.462;11.000;2024-02-23T07:54:25;10.40;99.90
37289;DHT22;23174;49.462;11.000;2024-02-23T07:56:26;10.50;99.90
37289;DHT22;23174;49.462;11.000;2024-02-23T07:58:26;10.50;99.90
37289;DHT22;23174;49.462;11.000;2024-02-23T08:00:27;10.50;99.90
37289;DHT22;23174;49.462;11.000;2024-02-23T08:02:28;10.50;99.90
37289;DHT22;23174;49.462;11.000;2024-02-23T08:04:28;10.50;99.90
37289;DHT22;23174;49.462;11.000;2024-02-23T08:06:29;10.50;99.90
37289;DHT22;23174;49.462;11.000;2024-02-23T08:08:30;10.50;99.90
37289;DHT22;23174;49.462;11.000;2024-02-23T08:10:33;10.50;99.90
37289;DHT22;23174;49.462;11.000;2024-02-23T08:12:33;10.40;99.90
37289;DHT22;23174;49.462;11.000;2024-02-23T08:14:33;10.50;99.90
37289;DHT22;23174;49.462;11.000;2024-02-23T08:16:34;10.50;99.90
37289;DHT22;23174;49.462;11.000;2024-02-23T08:18:34;10.60;99.90
37289;DHT22;23174;49.462;11.000;2024-02-23T08:20:35;10.60;99.90
37289;DHT22;23174;49.462;11.000;2024-02-23T08:22:35;10.70;99.90
37289;DHT22;23174;49.462;11.000;2024-02-23T08:24:36;10.70;99.90
37289;DHT22;23174;49.462;11.000;2024-02-23T08:26:37;10.60;99.90
37289;DHT22;23174;49.462;11.000;2024-02-23T08:28:38;10.60;99.90
37289;DHT22;23174;49.462;11.000;2024-02-23T08:30:39;10.60;99.90
37289;DHT22;23174;49.462;11.000;2024-02-23T08:32:40;10.60;99.90
37289;DHT22;23174;49.462;11.000;2024-02-23T08:34:40;10.60;99.90
37289;DHT22;23174;49.462;11.000;2024-02-23T08:36:41;10.70;99.90
37289;DHT22;23174;49.462;11.000;2024-02-23T08:38:41;10.70;99.90
37289;DHT22;23174;49.462;11.000;2024-02-23T08:40:42;10.80;99.90
37289;DHT22;23174;49.462;11.000;2024-02-23T08:42:42;10.70;99.90
37289;DHT22;23174;49.462;11.000;2024-02-23T08:44:43;10.80;99.90
37289;DHT22;23174;49.462;11.000;2024-02-23T08:46:43;10.80;99.90
37289;DHT22;23174;49.462;11.000;2024-02-23T08:48:44;10.90;99.90
37289;DHT22;23174;49.462;11.000;2024-02-23T08:50:44;10.80;99.90
37289;DHT22;23174;49.462;11.000;2024-02-23T08:52:45;10.90;99.90
37289;DHT22;23174;49.462;11.000;2024-02-23T08:54:45;10.80;99.90
37289;DHT22;23174;49.462;11.000;2024-02-23T08:56:46;10.90;99.90
37289;DHT22;23174;49.462;11.000;2024-02-23T08:58:46;10.90;99.90
37289;DHT22;23174;49.462;11.000;2024-02-23T09:00:47;10.90;99.90
37289;DHT22;23174;49.462;11.000;2024-02-23T09:02:48;10.90;99.90
37289;DHT22;23174;49.462;11.000;2024-02-23T09:04:50;10.90;99.90
37289;DHT22;23174;49.462;11.000;2024-02-23T09:06:50;10.90;99.90
37289;DHT22;23174;49.462;11.000;2024-02-23T09:08:53;10.90;99.90
37289;DHT22;23174;49.462;11.000;2024-02-23T09:10:53;11.00;99.90
37289;DHT22;23174;49.462;11.000;2024-02-23T09:12:54;11.10;99.90
37289;DHT22;23174;49.462;11.000;2024-02-23T09:14:54;10.90;99.90
37289;DHT22;23174;49.462;11.000;2024-02-23T09:16:55;11.00;99.90
37289;DHT22;23174;49.462;11.000;2024-02-23T09:18:56;11.00;99.90
37289;DHT22;23174;49.462;11.000;2024-02-23T09:20:56;10.90;99.90
37289;DHT22;23174;49.462;11.000;2024-02-23T09:22:56;10.90;99.90
37289;DHT22;23174;49.462;11.000;2024-02-23T09:24:57;11.00;99.90
37289;DHT22;23174;49.462;11.000;2024-02-23T09:26:57;11.00;99.90
37289;DHT22;23174;49.462;11.000;2024-02-23T09:28:58;11.00;99.90
37289;DHT22;23174;49.462;11.000;2024-02-23T09:30:58;11.00;99.90
37289;DHT22;23174;49.462;11.000;2024-02-23T09:32:59;11.10;99.90
37289;DHT22;23174;49.462;11.000;2024-02-23T09:34:59;11.00;99.90
37289;DHT22;23174;49.462;11.000;2024-02-23T09:37:00;11.10;99.90
37289;DHT22;23174;49.462;11.000;2024-02-23T09:39:00;11.10;99.90
37289;DHT22;23174;49.462;11.000;2024-02-23T09:41:02;11.00;99.90
37289;DHT22;23174;49.462;11.000;2024-02-23T09:43:04;11.00;99.90
37289;DHT22;23174;49.462;11.000;2024-02-23T09:45:07;11.00;99.90
37289;DHT22;23174;49.462;11.000;2024-02-23T09:47:09;11.10;99.90
37289;DHT22;23174;49.462;11.000;2024-02-23T09:49:11;11.10;99.90
37289;DHT22;23174;49.462;11.000;2024-02-23T09:51:13;11.10;99.90
37289;DHT22;23174;49.462;11.000;2024-02-23T09:53:15;11.10;99.90
37289;DHT22;23174;49.462;11.000;2024-02-23T09:55:17;11.10;99.90
37289;DHT22;23174;49.462;11.000;2024-02-23T09:57:19;11.20;99.90
37289;DHT22;23174;49.462;11.000;2024-02-23T09:59:20;11.30;99.90
37289;DHT22;23174;49.462;11.000;2024-02-23T10:01:28;11.30;99.90
37289;DHT22;23174;49.462;11.000;2024-02-23T10:03:29;11.10;99.90
37289;DHT22;23174;49.462;11.000;2024-02-23T10:05:32;11.20;99.90
37289;DHT22;23174;49.462;11.000;2024-02-23T10:07:33;11.10;99.90
37289;DHT22;23174;49.462;11.000;2024-02-23T10:09:33;11.30;99.90
37289;DHT22;23174;49.462;11.000;2024-02-23T10:11:34;11.30;99.90
37289;DHT22;23174;49.462;11.000;2024-02-23T10:13:34;11.20;99.90
37289;DHT22;23174;49.462;11.000;2024-02-23T10:15:35;11.20;99.90
37289;DHT22;23174;49.462;11.000;2024-02-23T10:17:35;11.20;99.90
37289;DHT22;23174;49.462;11.000;2024-02-23T10:19:36;11.20;99.90
37289;DHT22;23174;49.462;11.000;2024-02-23T10:21:36;11.10;99.90
37289;DHT22;23174;49.462;11.000;2024-02-23T10:23:37;11.10;99.90
37289;DHT22;23174;49.462;11.000;2024-02-23T10:25:37;11.10;99.90
37289;DHT22;23174;49.462;11.000;2024-02-23T10:27:40;11.10;99.90
37289;DHT22;23174;49.462;11.000;2024-02-23T10:29:41;11.20;99.90
37289;DHT22;23174;49.462;11.000;2024-02-23T10:31:42;11.20;99.90
37289;DHT22;23174;49.462;11.000;2024-02-23T10:33:45;11.20;99.90
37289;DHT22;23174;49.462;11.000;2024-02-23T10:35:48;11.20;99.90
37289;DHT22;23174;49.462;11.000;2024-02-23T10:37:53;11.20;99.90
37289;DHT22;23174;49.462;11.000;2024-02-23T10:39:57;11.10;99.90
37289;DHT22;23174;49.462;11.000;2024-02-23T10:42:02;11.10;99.90
37289;DHT22;23174;49.462;11.000;2024-02-23T10:44:04;11.10;99.90
37289;DHT22;23174;49.462;11.000;2024-02-23T10:46:05;11.20;99.90
37289;DHT22;23174;49.462;11.000;2024-02-23T10:48:09;11.10;99.90
37289;DHT22;23174;49.462;11.000;2024-02-23T10:50:10;11.10;99.90
37289;DHT22;23174;49.462;11.000;2024-02-23T10:52:15;11.20;99.90
37289;DHT22;23174;49.462;11.000;2024-02-23T10:54:18;11.20;99.90
37289;DHT22;23174;49.462;11.000;2024-02-23T10:56:20;11.10;99.90
37289;DHT22;23174;49.462;11.000;2024-02-23T10:58:22;11.10;99.90
37289;DHT22;23174;49.462;11.000;2024-02-23T11:00:23;11.10;99.90
37289;DHT22;23174;49.462;11.000;2024-02-23T11:02:27;11.10;99.90
37289;DHT22;23174;49.462;11.000;2024-02-23T11:04:31;11.10;99.90
37289;DHT22;23174;49.462;11.000;2024-02-23T11:06:34;11.20;99.90
37289;DHT22;23174;49.462;11.000;2024-02-23T11:08:34;11.20;99.90
37289;DHT22;23174;49.462;11.000;2024-02-23T11:10:51;11.10;99.90
37289;DHT22;23174;49.462;11.000;2024-02-23T11:13:01;11.10;99.90
37289;DHT22;23174;49.462;11.000;2024-02-23T11:15:02;11.20;99.90
37289;DHT22;23174;49.462;11.000;2024-02-23T11:17:03;11.20;99.90
37289;DHT22;23174;49.462;11.000;2024-02-23T11:19:05;11.20;99.90
37289;DHT22;23174;49.462;11.000;2024-02-23T11:21:09;11.20;99.90
37289;DHT22;23174;49.462;11.000;2024-02-23T11:23:13;11.10;99.90
37289;DHT22;23174;49.462;11.000;2024-02-23T11:25:17;11.10;99.90
37289;DHT22;23174;49.462;11.000;2024-02-23T11:27:18;11.20;99.90
37289;DHT22;23174;49.462;11.000;2024-02-23T11:29:18;11.20;99.90
37289;DHT22;23174;49.462;11.000;2024-02-23T11:31:23;11.30;99.90
37289;DHT22;23174;49.462;11.000;2024-02-23T11:33:27;11.20;99.90
37289;DHT22;23174;49.462;11.000;2024-02-23T11:35:28;11.30;99.90
37289;DHT22;23174;49.462;11.000;2024-02-23T11:37:28;11.30;99.90
37289;DHT22;23174;49.462;11.000;2024-02-23T11:39:30;11.30;99.90
37289;DHT22;23174;49.462;11.000;2024-02-23T11:41:31;11.30;99.90
37289;DHT22;23174;49.462;11.000;2024-02-23T11:43:34;11.30;99.90
37289;DHT22;23174;49.462;11.000;2024-02-23T11:45:35;11.20;99.90
37289;DHT22;23174;49.462;11.000;2024-02-23T11:47:36;11.20;99.90
37289;DHT22;23174;49.462;11.000;2024-02-23T11:49:37;11.30;99.90
37289;DHT22;23174;49.462;11.000;2024-02-23T11:51:37;11.50;99.90
37289;DHT22;23174;49.462;11.000;2024-02-23T11:53:38;11.40;99.90
37289;DHT22;23174;49.462;11.000;2024-02-23T11:55:39;11.50;99.90
37289;DHT22;23174;49.462;11.000;2024-02-23T11:57:40;11.50;99.90
37289;DHT22;23174;49.462;11.000;2024-02-23T11:59:40;11.50;99.90
37289;DHT22;23174;49.462;11.000;2024-02-23T12:01:42;11.60;99.90
37289;DHT22;23174;49.462;11.000;2024-02-23T12:03:43;11.50;99.90
37289;DHT22;23174;49.462;11.000;2024-02-23T12:05:44;11.40;99.90
37289;DHT22;23174;49.462;11.000;2024-02-23T12:07:44;11.50;99.90
37289;DHT22;23174;49.462;11.000;2024-02-23T12:09:45;11.50;99.90
37289;DHT22;23174;49.462;11.000;2024-02-23T12:11:46;11.60;99.90
37289;DHT22;23174;49.462;11.000;2024-02-23T12:13:46;11.50;99.90
37289;DHT22;23174;49.462;11.000;2024-02-23T12:15:48;11.50;99.90
37289;DHT22;23174;49.462;11.000;2024-02-23T12:17:49;11.50;99.90
37289;DHT22;23174;49.462;11.000;2024-02-23T12:19:50;11.60;99.90
37289;DHT22;23174;49.462;11.000;2024-02-23T12:21:50;11.60;99.90
37289;DHT22;23174;49.462;11.000;2024-02-23T12:23:51;11.60;99.90
37289;DHT22;23174;49.462;11.000;2024-02-23T12:25:56;11.60;99.90
37289;DHT22;23174;49.462;11.000;2024-02-23T12:27:57;11.60;99.90
37289;DHT22;23174;49.462;11.000;2024-02-23T12:29:57;11.50;99.90
37289;DHT22;23174;49.462;11.000;2024-02-23T12:32:06;11.50;99.90